createdAt,value
2018-10-21T00:02:24.789Z,8.85
2018-10-21T00:04:52.986Z,8.74
2018-10-21T00:07:21.562Z,8.56
2018-10-21T00:09:49.746Z,8.38
2018-10-21T00:12:17.973Z,8.47
2018-10-21T00:14:46.193Z,8.50
2018-10-21T00:17:14.404Z,8.47
2018-10-21T00:19:42.617Z,8.67
2018-10-21T00:22:10.813Z,8.63
2018-10-21T00:24:39.041Z,8.64
2018-10-21T00:27:07.563Z,8.54
2018-10-21T00:29:35.865Z,8.71
2018-10-21T00:32:04.148Z,8.84
2018-10-21T00:34:32.362Z,8.82
2018-10-21T00:37:00.612Z,8.58
2018-10-21T00:39:28.835Z,8.66
2018-10-21T00:41:57.132Z,8.48
2018-10-21T00:44:25.362Z,8.50
2018-10-21T00:46:53.585Z,8.41
2018-10-21T00:49:25.325Z,8.27
2018-10-21T00:51:53.565Z,8.26
2018-10-21T00:54:21.754Z,8.36
2018-10-21T00:56:50.966Z,8.36
2018-10-21T00:59:19.169Z,8.27
2018-10-21T01:01:47.393Z,8.18
2018-10-21T01:04:15.663Z,8.23
2018-10-21T01:06:43.789Z,8.09
2018-10-21T01:09:13.309Z,8.23
2018-10-21T01:11:42.491Z,8.42
2018-10-21T01:14:10.979Z,8.44
2018-10-21T01:16:39.258Z,8.29
2018-10-21T01:19:07.607Z,8.28
2018-10-21T01:21:36.373Z,8.43
2018-10-21T01:24:04.688Z,8.52
2018-10-21T01:26:32.880Z,8.41
2018-10-21T01:29:01.098Z,8.54
2018-10-21T01:31:29.306Z,8.35
2018-10-21T01:33:57.530Z,8.18
2018-10-21T01:36:26.124Z,8.26
2018-10-21T01:38:54.130Z,8.25
2018-10-21T01:41:22.428Z,8.13
2018-10-21T01:43:51.061Z,8.08
2018-10-21T01:46:19.372Z,8.19
2018-10-21T01:48:47.657Z,8.29
2018-10-21T01:51:15.943Z,7.99
2018-10-21T01:53:44.069Z,8.04
2018-10-21T01:56:12.353Z,7.79
2018-10-21T01:58:40.565Z,7.83
2018-10-21T02:01:08.766Z,8.01
2018-10-21T02:03:36.977Z,7.86
2018-10-21T02:06:05.282Z,7.95
2018-10-21T02:08:33.510Z,7.87
2018-10-21T02:11:01.709Z,7.68
2018-10-21T02:13:29.909Z,7.84
2018-10-21T02:15:58.117Z,7.84
2018-10-21T02:18:26.315Z,7.86
2018-10-21T02:20:54.569Z,7.91
2018-10-21T02:23:22.741Z,7.79
2018-10-21T02:25:51.074Z,7.79
2018-10-21T02:28:19.290Z,7.84
2018-10-21T02:30:47.525Z,8.01
2018-10-21T02:33:15.851Z,8.13
2018-10-21T02:35:43.960Z,8.10
2018-10-21T02:38:12.160Z,8.01
2018-10-21T02:41:56.374Z,8.03
2018-10-21T02:44:24.974Z,8.01
2018-10-21T02:46:54.484Z,7.96
2018-10-21T02:49:23.081Z,7.87
2018-10-21T02:51:56.517Z,7.78
2018-10-21T02:54:26.733Z,8.00
2018-10-21T02:56:55.062Z,7.90
2018-10-21T02:59:23.819Z,7.77
2018-10-21T03:01:52.064Z,7.97
2018-10-21T03:04:20.604Z,7.42
2018-10-21T03:06:49.227Z,7.60
2018-10-21T03:09:17.720Z,7.53
2018-10-21T03:11:45.797Z,7.73
2018-10-21T03:14:14.105Z,7.95
2018-10-21T03:16:42.467Z,7.65
2018-10-21T03:19:10.691Z,7.52
2018-10-21T03:21:38.920Z,7.80
2018-10-21T03:24:07.175Z,7.64
2018-10-21T03:26:35.385Z,7.73
2018-10-21T03:29:03.645Z,7.71
2018-10-21T03:31:31.869Z,7.87
2018-10-21T03:34:00.226Z,7.65
2018-10-21T03:36:28.293Z,7.85
2018-10-21T03:38:56.549Z,7.72
2018-10-21T03:41:24.767Z,7.65
2018-10-21T03:43:52.964Z,7.61
2018-10-21T03:46:21.181Z,7.41
2018-10-21T03:48:50.498Z,7.50
2018-10-21T03:51:18.721Z,7.54
2018-10-21T03:53:46.922Z,7.48
2018-10-21T03:56:15.141Z,7.67
2018-10-21T03:58:45.479Z,7.50
2018-10-21T04:01:13.713Z,7.44
2018-10-21T04:03:41.916Z,7.56
2018-10-21T04:06:10.129Z,7.43
2018-10-21T04:08:38.329Z,7.66
2018-10-21T04:11:06.548Z,7.57
2018-10-21T04:13:34.761Z,7.43
2018-10-21T04:16:02.984Z,7.53
2018-10-21T04:18:31.178Z,7.39
2018-10-21T04:20:59.397Z,7.24
2018-10-21T04:23:27.603Z,7.39
2018-10-21T04:25:55.880Z,7.55
2018-10-21T04:28:25.155Z,7.27
2018-10-21T04:30:53.381Z,7.29
2018-10-21T04:33:52.059Z,7.29
2018-10-21T04:36:29.089Z,7.40
2018-10-21T04:40:08.571Z,7.39
2018-10-21T04:42:40.585Z,7.19
2018-10-21T04:45:09.414Z,7.02
2018-10-21T04:47:37.681Z,7.02
2018-10-21T04:50:07.401Z,6.99
2018-10-21T04:52:35.606Z,7.05
2018-10-21T04:55:06.777Z,6.90
2018-10-21T04:57:35.685Z,7.07
2018-10-21T05:00:03.999Z,7.14
2018-10-21T05:02:32.449Z,6.85
2018-10-21T05:05:00.757Z,6.83
2018-10-21T05:07:29.043Z,6.99
2018-10-21T05:09:57.220Z,6.85
2018-10-21T05:12:25.410Z,7.03
2018-10-21T05:14:53.658Z,6.69
2018-10-21T05:17:21.871Z,6.82
2018-10-21T05:19:50.068Z,6.87
2018-10-21T05:22:21.382Z,6.69
2018-10-21T05:24:49.592Z,6.87
2018-10-21T05:27:17.810Z,6.81
2018-10-21T05:29:46.014Z,6.79
2018-10-21T05:32:14.215Z,6.88
2018-10-21T05:34:42.404Z,6.78
2018-10-21T05:37:10.638Z,6.80
2018-10-21T05:39:38.873Z,6.80
2018-10-21T05:42:07.097Z,6.85
2018-10-21T05:44:35.328Z,7.00
2018-10-21T05:47:03.613Z,6.92
2018-10-21T05:49:31.804Z,6.80
2018-10-21T05:52:00.093Z,6.74
2018-10-21T05:54:28.277Z,6.72
2018-10-21T05:56:56.502Z,6.86
2018-10-21T05:59:24.796Z,6.63
2018-10-21T06:01:52.972Z,6.64
2018-10-21T06:04:22.293Z,6.73
2018-10-21T06:06:50.482Z,6.74
2018-10-21T06:09:18.706Z,6.84
2018-10-21T06:11:46.917Z,6.85
2018-10-21T06:14:15.245Z,6.83
2018-10-21T06:16:46.929Z,6.86
2018-10-21T06:19:20.612Z,6.87
2018-10-21T06:21:48.923Z,6.94
2018-10-21T06:24:17.121Z,6.92
2018-10-21T06:26:45.328Z,6.77
2018-10-21T06:29:13.521Z,6.87
2018-10-21T06:31:41.737Z,6.74
2018-10-21T06:34:10.963Z,6.87
2018-10-21T06:36:39.299Z,6.83
2018-10-21T06:39:10.634Z,6.84
2018-10-21T06:41:39.022Z,6.94
2018-10-21T06:44:07.313Z,6.85
2018-10-21T06:46:35.629Z,6.94
2018-10-21T06:49:04.014Z,6.94
2018-10-21T06:51:32.220Z,6.80
2018-10-21T06:54:00.461Z,6.73
2018-10-21T06:56:29.176Z,6.83
2018-10-21T06:59:00.770Z,6.80
2018-10-21T07:01:29.678Z,6.68
2018-10-21T07:03:58.955Z,6.81
2018-10-21T07:06:29.028Z,6.83
2018-10-21T07:09:01.865Z,6.61
2018-10-21T07:11:30.153Z,6.84
2018-10-21T07:13:58.366Z,6.90
2018-10-21T07:16:26.644Z,6.83
2018-10-21T07:18:54.757Z,6.80
2018-10-21T07:21:23.013Z,6.90
2018-10-21T07:23:51.215Z,6.93
2018-10-21T07:26:19.508Z,7.05
2018-10-21T07:28:47.753Z,6.83
2018-10-21T07:31:16.026Z,6.77
2018-10-21T07:33:44.342Z,6.98
2018-10-21T07:36:13.485Z,6.99
2018-10-21T07:38:41.732Z,7.12
2018-10-21T07:41:13.534Z,7.55
2018-10-21T07:43:41.770Z,7.29
2018-10-21T07:46:10.063Z,7.23
2018-10-21T07:48:38.284Z,7.21
2018-10-21T07:51:06.885Z,7.21
2018-10-21T07:53:35.096Z,7.35
2018-10-21T07:56:03.490Z,7.10
2018-10-21T07:58:31.713Z,7.02
2018-10-21T08:01:00.019Z,6.96
2018-10-21T08:03:28.139Z,7.12
2018-10-21T08:06:19.814Z,6.84
2018-10-21T08:08:48.059Z,7.26
2018-10-21T08:11:16.376Z,7.00
2018-10-21T08:13:44.574Z,7.27
2018-10-21T08:16:12.877Z,7.09
2018-10-21T08:18:40.972Z,6.96
2018-10-21T08:21:09.259Z,7.04
2018-10-21T08:23:37.453Z,7.30
2018-10-21T08:26:05.969Z,7.46
2018-10-21T08:28:34.192Z,7.64
2018-10-21T08:31:02.408Z,7.71
2018-10-21T08:33:30.733Z,7.47
2018-10-21T08:35:59.045Z,7.54
2018-10-21T08:38:27.210Z,7.83
2018-10-21T08:40:55.446Z,7.45
2018-10-21T08:43:23.649Z,7.61
2018-10-21T08:45:51.892Z,7.88
2018-10-21T08:48:20.186Z,8.02
2018-10-21T08:50:48.403Z,8.21
2018-10-21T08:53:16.601Z,8.27
2018-10-21T08:55:45.087Z,8.14
2018-10-21T08:58:13.391Z,8.10
2018-10-21T09:00:41.534Z,8.07
2018-10-21T09:03:09.749Z,7.81
2018-10-21T09:05:37.958Z,7.77
2018-10-21T09:08:06.473Z,8.44
2018-10-21T09:10:34.785Z,8.13
2018-10-21T09:13:02.954Z,8.28
2018-10-21T09:15:31.171Z,8.91
2018-10-21T09:17:59.366Z,8.97
2018-10-21T09:20:27.585Z,9.12
2018-10-21T09:22:55.797Z,9.19
2018-10-21T09:25:24.037Z,9.19
2018-10-21T09:27:52.228Z,9.22
2018-10-21T09:30:20.451Z,9.49
2018-10-21T09:32:48.701Z,9.61
2018-10-21T09:35:18.104Z,9.63
2018-10-21T09:37:46.492Z,9.86
2018-10-21T09:40:17.065Z,10.19
2018-10-21T09:42:45.641Z,10.06
2018-10-21T09:45:15.384Z,10.12
2018-10-21T09:47:44.059Z,9.37
2018-10-21T09:50:12.759Z,9.69
2018-10-21T09:52:41.022Z,10.14
2018-10-21T09:55:14.789Z,10.46
2018-10-21T09:57:43.250Z,10.64
2018-10-21T10:00:11.602Z,10.75
2018-10-21T10:02:46.362Z,10.91
2018-10-21T10:05:14.613Z,10.21
2018-10-21T10:07:42.852Z,10.77
2018-10-21T10:10:13.352Z,11.04
2018-10-21T10:12:41.414Z,11.13
2018-10-21T10:15:10.185Z,11.46
2018-10-21T10:17:38.387Z,11.30
2018-10-21T10:20:07.983Z,11.31
2018-10-21T10:22:36.194Z,11.41
2018-10-21T10:25:04.659Z,11.88
2018-10-21T10:27:32.827Z,11.59
2018-10-21T10:30:01.077Z,11.96
2018-10-21T10:32:29.301Z,11.50
2018-10-21T10:34:57.537Z,11.48
2018-10-21T10:37:26.150Z,12.00
2018-10-21T10:39:54.508Z,12.27
2018-10-21T10:42:22.753Z,12.12
2018-10-21T10:44:50.898Z,12.45
2018-10-21T10:47:19.161Z,12.30
2018-10-21T10:49:47.368Z,12.42
2018-10-21T10:52:15.684Z,12.53
2018-10-21T10:54:43.865Z,12.84
2018-10-21T10:57:12.079Z,13.23
2018-10-21T10:59:40.363Z,13.34
2018-10-21T11:02:08.565Z,13.43
2018-10-21T11:04:36.868Z,13.60
2018-10-21T11:07:05.665Z,13.49
2018-10-21T11:09:33.862Z,13.76
2018-10-21T11:12:02.193Z,13.78
2018-10-21T11:14:30.459Z,13.98
2018-10-21T11:16:58.693Z,14.03
2018-10-21T11:19:27.050Z,13.93
2018-10-21T11:21:55.510Z,14.03
2018-10-21T11:24:23.684Z,14.12
2018-10-21T11:26:52.122Z,14.13
2018-10-21T11:29:22.386Z,13.86
2018-10-21T11:31:50.594Z,14.00
2018-10-21T11:34:18.846Z,14.03
2018-10-21T11:36:47.136Z,14.16
2018-10-21T11:39:15.341Z,14.23
2018-10-21T11:41:43.542Z,14.45
2018-10-21T11:44:11.841Z,14.51
2018-10-21T11:46:40.246Z,14.57
2018-10-21T11:49:08.483Z,14.83
2018-10-21T11:51:36.636Z,15.04
2018-10-21T11:54:04.917Z,15.00
2018-10-21T11:56:35.073Z,15.05
2018-10-21T11:59:03.282Z,14.97
2018-10-21T12:01:31.489Z,15.28
2018-10-21T12:03:59.752Z,15.41
2018-10-21T12:06:27.994Z,15.30
2018-10-21T12:08:56.154Z,15.34
2018-10-21T12:11:24.446Z,15.49
2018-10-21T12:13:52.666Z,15.42
2018-10-21T12:16:20.861Z,15.31
2018-10-21T12:18:49.093Z,15.36
2018-10-21T12:21:17.304Z,15.71
2018-10-21T12:23:45.525Z,15.90
2018-10-21T12:26:13.736Z,15.95
2018-10-21T12:28:41.941Z,15.96
2018-10-21T12:31:10.226Z,16.13
2018-10-21T12:33:40.452Z,15.97
2018-10-21T12:36:08.652Z,16.07
2018-10-21T12:38:36.872Z,15.88
2018-10-21T12:41:05.119Z,16.06
2018-10-21T12:43:33.325Z,16.17
2018-10-21T12:46:01.523Z,16.24
2018-10-21T12:48:29.765Z,16.50
2018-10-21T12:50:58.012Z,16.45
2018-10-21T12:53:26.264Z,16.50
2018-10-21T12:55:54.489Z,16.38
2018-10-21T12:58:22.785Z,16.59
2018-10-21T13:00:52.069Z,16.39
2018-10-21T13:03:20.304Z,16.53
2018-10-21T13:05:48.572Z,16.69
2018-10-21T13:08:16.855Z,16.87
2018-10-21T13:10:45.160Z,16.72
2018-10-21T13:13:13.401Z,16.87
2018-10-21T13:15:41.609Z,16.80
2018-10-21T13:18:09.834Z,16.87
2018-10-21T13:20:38.078Z,16.92
2018-10-21T13:23:06.290Z,17.08
2018-10-21T13:25:34.510Z,16.98
2018-10-21T13:28:02.920Z,17.09
2018-10-21T13:30:31.138Z,17.03
2018-10-21T13:32:59.433Z,17.17
2018-10-21T13:35:27.699Z,17.10
2018-10-21T13:37:55.952Z,16.86
2018-10-21T13:40:24.768Z,17.07
2018-10-21T13:42:52.770Z,17.19
2018-10-21T13:45:21.155Z,17.26
2018-10-21T13:47:49.365Z,17.18
2018-10-21T13:50:17.653Z,17.17
2018-10-21T13:52:45.907Z,17.21
2018-10-21T13:55:14.342Z,16.98
2018-10-21T13:57:42.508Z,17.12
2018-10-21T14:00:10.981Z,17.29
2018-10-21T14:02:39.332Z,17.19
2018-10-21T14:05:09.078Z,17.16
2018-10-21T14:07:37.390Z,17.36
2018-10-21T14:10:06.835Z,17.37
2018-10-21T14:12:34.993Z,17.30
2018-10-21T14:15:03.464Z,17.27
2018-10-21T14:17:31.680Z,17.48
2018-10-21T14:20:00.001Z,17.27
2018-10-21T14:22:28.312Z,17.31
2018-10-21T14:24:57.561Z,17.31
2018-10-21T14:27:25.774Z,17.33
2018-10-21T14:29:53.999Z,17.39
2018-10-21T14:35:14.493Z,16.99
2018-10-21T14:37:42.710Z,17.21
2018-10-21T14:40:12.694Z,17.08
2018-10-21T14:42:41.263Z,17.14
2018-10-21T14:45:10.943Z,17.15
2018-10-21T14:47:43.022Z,17.18
2018-10-21T14:50:12.253Z,17.21
2018-10-21T14:52:40.480Z,17.06
2018-10-21T14:55:09.826Z,17.05
2018-10-21T14:57:38.210Z,16.93
2018-10-21T15:00:08.480Z,16.91
2018-10-21T15:02:36.590Z,17.07
2018-10-21T15:05:06.885Z,16.85
2018-10-21T15:07:35.158Z,16.77
2018-10-21T15:10:03.384Z,16.71
2018-10-21T15:12:31.648Z,16.81
2018-10-21T15:14:59.856Z,16.80
2018-10-21T15:17:28.058Z,16.79
2018-10-21T15:19:56.358Z,16.88
2018-10-21T15:22:24.616Z,16.76
2018-10-21T15:24:52.828Z,16.64
2018-10-21T15:27:21.088Z,16.73
2018-10-21T15:29:49.294Z,16.72
2018-10-21T15:32:17.595Z,16.69
2018-10-21T15:34:45.839Z,16.71
2018-10-21T15:37:13.992Z,16.60
2018-10-21T15:39:42.331Z,16.60
2018-10-21T15:42:11.516Z,16.55
2018-10-21T15:44:39.798Z,16.43
2018-10-21T15:47:08.003Z,16.40
2018-10-21T15:49:36.202Z,16.45
2018-10-21T15:52:04.473Z,16.47
2018-10-21T15:54:33.191Z,16.41
2018-10-21T15:57:01.389Z,16.34
2018-10-21T15:59:29.696Z,16.38
2018-10-21T16:01:57.955Z,16.35
2018-10-21T16:04:26.130Z,16.26
2018-10-21T16:06:54.354Z,16.18
2018-10-21T16:09:22.602Z,16.21
2018-10-21T16:11:50.834Z,15.98
2018-10-21T16:14:19.120Z,15.90
2018-10-21T16:16:47.329Z,15.82
2018-10-21T16:19:15.629Z,15.69
2018-10-21T16:21:43.909Z,15.66
2018-10-21T16:24:12.226Z,15.58
2018-10-21T16:26:40.593Z,15.47
2018-10-21T16:29:08.985Z,15.32
2018-10-21T16:31:37.311Z,15.41
2018-10-21T16:34:05.741Z,15.23
2018-10-21T16:36:33.901Z,15.16
2018-10-21T16:39:02.158Z,15.16
2018-10-21T16:41:33.021Z,15.06
2018-10-21T16:44:01.230Z,15.00
2018-10-21T16:46:29.464Z,14.92
2018-10-21T16:48:57.665Z,14.73
2018-10-21T16:51:25.961Z,14.67
2018-10-21T16:53:54.142Z,14.66
2018-10-21T16:56:22.341Z,14.77
2018-10-21T16:58:50.540Z,14.66
2018-10-21T17:01:18.730Z,14.53
2018-10-21T17:03:46.965Z,14.62
2018-10-21T17:06:15.114Z,14.43
2018-10-21T17:08:43.488Z,14.45
2018-10-21T17:11:11.787Z,14.18
2018-10-21T17:13:39.945Z,14.22
2018-10-21T17:16:08.456Z,14.12
2018-10-21T17:18:36.637Z,14.22
2018-10-21T17:21:04.999Z,14.10
2018-10-21T17:23:33.409Z,13.97
2018-10-21T17:26:01.629Z,13.95
2018-10-21T17:28:29.854Z,13.86
2018-10-21T17:30:58.105Z,13.81
2018-10-21T17:33:26.293Z,13.73
2018-10-21T17:35:54.572Z,13.73
2018-10-21T17:38:22.781Z,13.68
2018-10-21T17:40:50.974Z,13.57
2018-10-21T17:43:19.237Z,13.63
2018-10-21T17:45:47.457Z,13.52
2018-10-21T17:48:15.666Z,13.34
2018-10-21T17:50:43.930Z,13.45
2018-10-21T17:53:12.173Z,13.38
2018-10-21T17:55:40.401Z,13.34
2018-10-21T17:58:08.721Z,13.33
2018-10-21T18:00:36.909Z,13.30
2018-10-21T18:03:05.334Z,13.26
2018-10-21T18:05:33.567Z,13.12
2018-10-21T18:08:01.878Z,13.06
2018-10-21T18:10:30.119Z,13.18
2018-10-21T18:12:58.622Z,13.24
2018-10-21T18:15:26.829Z,13.16
2018-10-21T18:17:55.046Z,13.05
2018-10-21T18:20:23.328Z,13.14
2018-10-21T18:22:51.517Z,13.01
2018-10-21T18:25:19.766Z,13.04
2018-10-21T18:27:47.941Z,12.99
2018-10-21T18:30:19.106Z,12.88
2018-10-21T18:32:47.300Z,12.55
2018-10-21T18:35:16.298Z,12.73
2018-10-21T18:37:44.570Z,12.71
2018-10-21T18:40:13.133Z,12.65
2018-10-21T18:42:41.692Z,12.69
2018-10-21T18:45:11.710Z,12.55
2018-10-21T18:47:40.071Z,12.60
2018-10-21T18:50:10.045Z,12.48
2018-10-21T18:52:38.278Z,12.31
2018-10-21T18:55:07.557Z,12.28
2018-10-21T18:57:35.694Z,12.37
2018-10-21T19:00:03.990Z,12.39
2018-10-21T19:02:32.209Z,12.36
2018-10-21T19:05:00.411Z,12.23
2018-10-21T19:07:28.622Z,12.29
2018-10-21T19:09:56.871Z,12.04
2018-10-21T19:12:25.065Z,12.00
2018-10-21T19:14:53.266Z,12.14
2018-10-21T19:17:21.497Z,12.24
2018-10-21T19:19:49.755Z,12.21
2018-10-21T19:22:17.979Z,12.11
2018-10-21T19:24:46.189Z,12.10
2018-10-21T19:27:14.475Z,11.95
2018-10-21T19:29:42.643Z,11.93
2018-10-21T19:32:10.889Z,11.99
2018-10-21T19:34:39.709Z,11.95
2018-10-21T19:37:08.304Z,11.92
2018-10-21T19:39:36.520Z,11.87
2018-10-21T19:42:04.845Z,11.70
2018-10-21T19:44:33.053Z,11.64
2018-10-21T19:47:01.281Z,11.50
2018-10-21T19:49:29.524Z,11.72
2018-10-21T19:51:57.780Z,11.59
2018-10-21T19:54:26.006Z,11.68
2018-10-21T19:56:54.243Z,11.73
2018-10-21T19:59:22.489Z,11.64
2018-10-21T20:01:50.768Z,11.74
2018-10-21T20:04:18.987Z,11.59
2018-10-21T20:06:47.238Z,11.66
2018-10-21T20:09:15.453Z,11.62
2018-10-21T20:11:43.677Z,11.35
2018-10-21T20:14:11.891Z,11.35
2018-10-21T20:16:40.133Z,11.20
2018-10-21T20:19:08.424Z,11.27
2018-10-21T20:21:36.583Z,11.44
2018-10-21T20:24:04.982Z,11.42
2018-10-21T20:26:33.205Z,11.43
2018-10-21T20:29:01.409Z,11.35
2018-10-21T20:31:29.633Z,11.19
2018-10-21T20:33:57.945Z,11.07
2018-10-21T20:36:26.318Z,11.18
2018-10-21T20:38:54.461Z,11.12
2018-10-21T20:41:22.652Z,11.26
2018-10-21T20:43:50.889Z,11.18
2018-10-21T20:46:19.232Z,11.01
2018-10-21T20:48:47.465Z,11.04
2018-10-21T20:51:15.745Z,10.78
2018-10-21T20:53:43.906Z,10.84
2018-10-21T20:56:12.118Z,11.00
2018-10-21T20:58:40.321Z,10.96
2018-10-21T21:01:08.578Z,10.64
2018-10-21T21:03:36.783Z,10.94
2018-10-21T21:06:05.054Z,10.88
2018-10-21T21:08:33.205Z,10.85
2018-10-21T21:11:01.397Z,10.95
2018-10-21T21:13:29.601Z,10.93
2018-10-21T21:15:57.889Z,10.77
2018-10-21T21:18:26.053Z,10.81
2018-10-21T21:20:54.289Z,10.75
2018-10-21T21:23:22.485Z,10.80
2018-10-21T21:25:50.699Z,10.77
2018-10-21T21:28:18.916Z,10.73
2018-10-21T21:30:47.113Z,10.86
2018-10-21T21:33:15.355Z,10.65
2018-10-21T21:35:43.550Z,10.67
2018-10-21T21:38:11.772Z,10.57
2018-10-21T21:40:39.990Z,10.68
2018-10-21T21:43:08.349Z,10.59
2018-10-21T21:45:36.564Z,10.58
2018-10-21T21:48:05.172Z,10.66
2018-10-21T21:50:33.335Z,10.53
2018-10-21T21:53:01.581Z,10.56
2018-10-21T21:55:29.791Z,10.28
2018-10-21T21:57:57.995Z,10.39
2018-10-21T22:00:26.212Z,10.17
2018-10-21T22:02:54.415Z,10.23
2018-10-21T22:05:22.606Z,10.29
2018-10-21T22:07:50.831Z,10.09
2018-10-21T22:10:19.204Z,10.22
2018-10-21T22:12:47.260Z,10.27
2018-10-21T22:15:15.462Z,9.95
2018-10-21T22:17:44.162Z,10.15
2018-10-21T22:20:13.391Z,10.05
2018-10-21T22:22:41.645Z,10.17
2018-10-21T22:25:10.053Z,10.30
2018-10-21T22:27:38.242Z,10.21
2018-10-21T22:30:07.751Z,10.17
2018-10-21T22:32:35.969Z,10.18
2018-10-21T22:35:04.837Z,10.12
2018-10-21T22:37:33.078Z,10.06
2018-10-21T22:40:01.370Z,10.04
2018-10-21T22:42:29.519Z,10.08
2018-10-21T22:44:57.709Z,9.90
2018-10-21T22:47:25.917Z,10.06
2018-10-21T22:49:54.128Z,10.12
2018-10-21T22:52:22.363Z,10.02
2018-10-21T22:54:50.718Z,10.05
2018-10-21T22:57:19.965Z,10.07
2018-10-21T22:59:50.104Z,10.15
2018-10-21T23:02:18.357Z,10.26
2018-10-21T23:04:47.086Z,10.20
2018-10-21T23:07:15.309Z,10.19
2018-10-21T23:09:43.517Z,9.96
2018-10-21T23:12:11.778Z,9.91
2018-10-21T23:14:39.907Z,10.00
2018-10-21T23:17:08.145Z,10.06
2018-10-21T23:19:49.619Z,10.10
2018-10-21T23:22:18.043Z,9.69
2018-10-21T23:24:46.223Z,9.67
2018-10-21T23:27:14.572Z,9.76
2018-10-21T23:29:43.588Z,9.89
2018-10-21T23:32:11.832Z,9.96
2018-10-21T23:34:40.054Z,9.85
2018-10-21T23:37:08.305Z,9.81
2018-10-21T23:39:36.508Z,9.75
2018-10-21T23:42:04.919Z,9.77
2018-10-21T23:44:33.085Z,9.57
2018-10-21T23:47:01.274Z,9.67
2018-10-21T23:49:29.505Z,9.60
2018-10-21T23:51:57.759Z,9.58
2018-10-21T23:54:25.918Z,9.38
2018-10-21T23:56:54.125Z,9.45
2018-10-21T23:59:22.324Z,9.36
